sensor_id;sensor_type;location;lat;lon;timestamp;pressure;altitude;pressure_sealevel;temperature;humidity
28797;BME280;24974;54.444;18.560;2023-06-24T00:01:41;101456.16;;;20.76;55.95
28797;BME280;24974;54.444;18.560;2023-06-24T00:04:11;101445.59;;;20.69;56.04
28797;BME280;24974;54.444;18.560;2023-06-24T00:06:45;101451.72;;;20.90;55.77
28797;BME280;24974;54.444;18.560;2023-06-24T00:09:16;101455.06;;;20.96;55.46
28797;BME280;24974;54.444;18.560;2023-06-24T00:11:47;101445.97;;;20.99;55.47
28797;BME280;24974;54.444;18.560;2023-06-24T00:14:18;101444.84;;;21.19;54.67
28797;BME280;24974;54.444;18.560;2023-06-24T00:16:54;101443.38;;;21.41;54.33
28797;BME280;24974;54.444;18.560;2023-06-24T00:19:26;101448.69;;;21.46;54.44
28797;BME280;24974;54.444;18.560;2023-06-24T00:21:57;101438.47;;;21.03;55.56
28797;BME280;24974;54.444;18.560;2023-06-24T00:24:29;101437.59;;;20.83;55.62
28797;BME280;24974;54.444;18.560;2023-06-24T00:26:59;101436.31;;;21.12;55.25
28797;BME280;24974;54.444;18.560;2023-06-24T00:29:30;101443.59;;;21.17;55.20
28797;BME280;24974;54.444;18.560;2023-06-24T00:32:01;101441.59;;;21.33;54.49
28797;BME280;24974;54.444;18.560;2023-06-24T00:34:33;101441.25;;;21.35;54.79
28797;BME280;24974;54.444;18.560;2023-06-24T00:37:04;101438.75;;;21.49;54.54
28797;BME280;24974;54.444;18.560;2023-06-24T00:39:35;101444.34;;;21.49;54.77
28797;BME280;24974;54.444;18.560;2023-06-24T00:42:05;101440.81;;;21.01;55.48
28797;BME280;24974;54.444;18.560;2023-06-24T00:44:36;101435.88;;;20.94;56.01
28797;BME280;24974;54.444;18.560;2023-06-24T00:47:07;101445.50;;;21.29;55.39
28797;BME280;24974;54.444;18.560;2023-06-24T00:49:38;101448.38;;;21.16;55.47
28797;BME280;24974;54.444;18.560;2023-06-24T00:52:09;101454.44;;;21.34;54.96
28797;BME280;24974;54.444;18.560;2023-06-24T00:54:43;101452.59;;;21.26;55.48
28797;BME280;24974;54.444;18.560;2023-06-24T00:57:14;101456.78;;;20.85;56.67
28797;BME280;24974;54.444;18.560;2023-06-24T00:59:45;101448.75;;;20.83;57.01
28797;BME280;24974;54.444;18.560;2023-06-24T01:02:17;101449.66;;;21.03;56.36
28797;BME280;24974;54.444;18.560;2023-06-24T01:04:48;101449.28;;;20.57;57.43
28797;BME280;24974;54.444;18.560;2023-06-24T01:07:19;101446.09;;;20.43;58.31
28797;BME280;24974;54.444;18.560;2023-06-24T01:09:50;101444.31;;;21.14;56.63
28797;BME280;24974;54.444;18.560;2023-06-24T01:12:21;101451.66;;;20.71;57.63
28797;BME280;24974;54.444;18.560;2023-06-24T01:14:51;101452.78;;;21.17;56.25
28797;BME280;24974;54.444;18.560;2023-06-24T01:17:59;101444.50;;;21.05;56.55
28797;BME280;24974;54.444;18.560;2023-06-24T01:25:55;101441.53;;;20.98;56.80
28797;BME280;24974;54.444;18.560;2023-06-24T01:33:58;101437.56;;;21.31;56.34
28797;BME280;24974;54.444;18.560;2023-06-24T01:36:33;101430.13;;;20.87;57.06
28797;BME280;24974;54.444;18.560;2023-06-24T01:39:06;101427.19;;;21.00;57.13
28797;BME280;24974;54.444;18.560;2023-06-24T01:41:40;101423.69;;;21.03;56.90
28797;BME280;24974;54.444;18.560;2023-06-24T01:44:15;101429.47;;;21.10;56.73
28797;BME280;24974;54.444;18.560;2023-06-24T01:46:48;101436.38;;;21.32;56.24
28797;BME280;24974;54.444;18.560;2023-06-24T01:49:21;101438.09;;;21.36;56.09
28797;BME280;24974;54.444;18.560;2023-06-24T01:51:54;101428.56;;;21.06;56.68
28797;BME280;24974;54.444;18.560;2023-06-24T01:54:26;101436.75;;;21.14;56.53
28797;BME280;24974;54.444;18.560;2023-06-24T01:56:58;101431.81;;;20.92;57.37
28797;BME280;24974;54.444;18.560;2023-06-24T01:59:30;101437.09;;;21.13;56.80
28797;BME280;24974;54.444;18.560;2023-06-24T02:02:02;101437.41;;;20.92;57.00
28797;BME280;24974;54.444;18.560;2023-06-24T02:04:34;101436.31;;;21.12;56.63
28797;BME280;24974;54.444;18.560;2023-06-24T02:07:05;101443.50;;;21.29;56.50
28797;BME280;24974;54.444;18.560;2023-06-24T02:09:37;101436.06;;;20.86;57.67
28797;BME280;24974;54.444;18.560;2023-06-24T02:12:09;101437.41;;;20.92;57.44
28797;BME280;24974;54.444;18.560;2023-06-24T02:14:40;101443.16;;;20.99;57.49
28797;BME280;24974;54.444;18.560;2023-06-24T02:17:11;101442.53;;;20.90;57.21
28797;BME280;24974;54.444;18.560;2023-06-24T02:19:42;101440.19;;;20.76;58.15
28797;BME280;24974;54.444;18.560;2023-06-24T02:22:14;101450.56;;;20.76;58.00
28797;BME280;24974;54.444;18.560;2023-06-24T02:24:45;101449.94;;;20.98;57.39
28797;BME280;24974;54.444;18.560;2023-06-24T02:27:16;101452.03;;;20.85;57.42
28797;BME280;24974;54.444;18.560;2023-06-24T02:29:47;101462.34;;;21.16;56.44
28797;BME280;24974;54.444;18.560;2023-06-24T02:32:18;101455.75;;;21.24;56.46
28797;BME280;24974;54.444;18.560;2023-06-24T02:34:49;101462.22;;;20.78;57.90
28797;BME280;24974;54.444;18.560;2023-06-24T02:37:20;101454.91;;;20.89;57.66
28797;BME280;24974;54.444;18.560;2023-06-24T02:39:51;101455.22;;;21.35;56.59
28797;BME280;24974;54.444;18.560;2023-06-24T02:42:22;101460.84;;;21.54;56.01
28797;BME280;24974;54.444;18.560;2023-06-24T02:44:52;101464.28;;;21.47;56.01
28797;BME280;24974;54.444;18.560;2023-06-24T02:47:23;101465.44;;;20.64;58.08
28797;BME280;24974;54.444;18.560;2023-06-24T02:49:54;101464.69;;;21.14;57.02
28797;BME280;24974;54.444;18.560;2023-06-24T02:52:28;101466.88;;;21.05;56.63
28797;BME280;24974;54.444;18.560;2023-06-24T02:54:59;101474.66;;;20.08;59.56
28797;BME280;24974;54.444;18.560;2023-06-24T02:57:48;101476.31;;;20.53;58.43
28797;BME280;24974;54.444;18.560;2023-06-24T03:00:33;101475.00;;;20.79;57.94
28797;BME280;24974;54.444;18.560;2023-06-24T03:03:28;101477.59;;;21.03;57.34
28797;BME280;24974;54.444;18.560;2023-06-24T03:06:01;101485.63;;;20.89;57.53
28797;BME280;24974;54.444;18.560;2023-06-24T03:08:34;101488.06;;;20.90;57.50
28797;BME280;24974;54.444;18.560;2023-06-24T03:11:05;101487.22;;;21.21;56.63
28797;BME280;24974;54.444;18.560;2023-06-24T03:13:38;101489.31;;;21.09;57.00
28797;BME280;24974;54.444;18.560;2023-06-24T03:16:29;101490.44;;;20.45;58.72
28797;BME280;24974;54.444;18.560;2023-06-24T03:19:08;101488.94;;;20.63;57.88
28797;BME280;24974;54.444;18.560;2023-06-24T03:21:39;101485.59;;;20.57;58.47
28797;BME280;24974;54.444;18.560;2023-06-24T03:24:19;101486.44;;;20.74;57.97
28797;BME280;24974;54.444;18.560;2023-06-24T03:26:53;101493.16;;;20.57;58.62
28797;BME280;24974;54.444;18.560;2023-06-24T03:29:30;101495.97;;;20.57;58.04
28797;BME280;24974;54.444;18.560;2023-06-24T03:32:08;101497.16;;;21.19;56.74
28797;BME280;24974;54.444;18.560;2023-06-24T03:34:39;101508.69;;;20.70;57.80
28797;BME280;24974;54.444;18.560;2023-06-24T03:37:10;101506.44;;;20.91;57.17
28797;BME280;24974;54.444;18.560;2023-06-24T03:39:43;101508.44;;;21.07;57.18
28797;BME280;24974;54.444;18.560;2023-06-24T03:42:14;101507.25;;;21.23;56.69
28797;BME280;24974;54.444;18.560;2023-06-24T03:44:45;101517.25;;;20.93;56.91
28797;BME280;24974;54.444;18.560;2023-06-24T03:47:16;101514.94;;;20.95;57.35
28797;BME280;24974;54.444;18.560;2023-06-24T03:49:47;101517.13;;;20.58;57.83
28797;BME280;24974;54.444;18.560;2023-06-24T03:52:18;101518.91;;;21.10;56.93
28797;BME280;24974;54.444;18.560;2023-06-24T03:54:49;101522.50;;;20.23;58.94
28797;BME280;24974;54.444;18.560;2023-06-24T03:57:20;101524.88;;;20.36;58.66
28797;BME280;24974;54.444;18.560;2023-06-24T03:59:51;101519.75;;;20.38;58.89
28797;BME280;24974;54.444;18.560;2023-06-24T04:02:22;101518.53;;;20.80;57.73
28797;BME280;24974;54.444;18.560;2023-06-24T04:04:52;101519.88;;;20.86;57.58
28797;BME280;24974;54.444;18.560;2023-06-24T04:07:23;101525.88;;;20.56;58.39
28797;BME280;24974;54.444;18.560;2023-06-24T04:10:02;101515.78;;;20.11;59.23
28797;BME280;24974;54.444;18.560;2023-06-24T04:12:33;101522.69;;;21.02;56.95
28797;BME280;24974;54.444;18.560;2023-06-24T04:15:04;101522.41;;;21.07;56.80
28797;BME280;24974;54.444;18.560;2023-06-24T04:17:37;101521.69;;;21.10;56.70
28797;BME280;24974;54.444;18.560;2023-06-24T04:20:08;101515.44;;;20.85;57.34
28797;BME280;24974;54.444;18.560;2023-06-24T04:22:39;101524.25;;;20.43;58.74
28797;BME280;24974;54.444;18.560;2023-06-24T04:25:10;101519.81;;;20.26;58.96
28797;BME280;24974;54.444;18.560;2023-06-24T04:27:42;101519.47;;;20.56;58.09
28797;BME280;24974;54.444;18.560;2023-06-24T04:30:13;101514.19;;;20.38;58.81
28797;BME280;24974;54.444;18.560;2023-06-24T04:32:44;101507.69;;;20.62;57.59
28797;BME280;24974;54.444;18.560;2023-06-24T04:35:15;101518.88;;;20.62;58.65
28797;BME280;24974;54.444;18.560;2023-06-24T04:37:45;101514.63;;;21.00;56.94
28797;BME280;24974;54.444;18.560;2023-06-24T04:40:17;101505.06;;;20.54;58.23
28797;BME280;24974;54.444;18.560;2023-06-24T04:42:48;101511.03;;;21.15;56.81
28797;BME280;24974;54.444;18.560;2023-06-24T04:45:18;101520.88;;;20.93;57.19
28797;BME280;24974;54.444;18.560;2023-06-24T04:47:49;101523.13;;;20.44;58.88
28797;BME280;24974;54.444;18.560;2023-06-24T04:50:20;101526.19;;;20.99;57.11
28797;BME280;24974;54.444;18.560;2023-06-24T04:52:54;101526.72;;;20.45;58.44
28797;BME280;24974;54.444;18.560;2023-06-24T04:55:25;101526.16;;;20.83;57.75
28797;BME280;24974;54.444;18.560;2023-06-24T04:57:55;101527.97;;;20.91;57.38
28797;BME280;24974;54.444;18.560;2023-06-24T05:00:26;101531.03;;;20.14;59.71
28797;BME280;24974;54.444;18.560;2023-06-24T05:02:57;101522.19;;;20.68;58.73
28797;BME280;24974;54.444;18.560;2023-06-24T05:05:27;101530.53;;;20.52;59.21
28797;BME280;24974;54.444;18.560;2023-06-24T05:07:58;101528.97;;;20.83;58.09
28797;BME280;24974;54.444;18.560;2023-06-24T05:10:28;101534.84;;;20.78;58.77
28797;BME280;24974;54.444;18.560;2023-06-24T05:12:59;101535.44;;;20.43;59.26
28797;BME280;24974;54.444;18.560;2023-06-24T05:15:29;101536.44;;;20.63;58.93
28797;BME280;24974;54.444;18.560;2023-06-24T05:18:00;101534.84;;;20.78;59.08
28797;BME280;24974;54.444;18.560;2023-06-24T05:20:31;101525.47;;;21.02;58.45
28797;BME280;24974;54.444;18.560;2023-06-24T05:23:01;101529.78;;;20.99;57.93
28797;BME280;24974;54.444;18.560;2023-06-24T05:25:32;101533.13;;;21.05;58.15
28797;BME280;24974;54.444;18.560;2023-06-24T05:28:02;101532.69;;;21.18;57.84
28797;BME280;24974;54.444;18.560;2023-06-24T05:30:33;101536.47;;;21.10;57.84
28797;BME280;24974;54.444;18.560;2023-06-24T05:33:03;101537.75;;;21.29;57.92
28797;BME280;24974;54.444;18.560;2023-06-24T05:35:34;101531.72;;;21.42;57.38
28797;BME280;24974;54.444;18.560;2023-06-24T05:38:05;101536.97;;;21.63;57.05
28797;BME280;24974;54.444;18.560;2023-06-24T05:40:35;101539.94;;;21.70;56.50
28797;BME280;24974;54.444;18.560;2023-06-24T05:43:06;101549.31;;;21.78;56.47
28797;BME280;24974;54.444;18.560;2023-06-24T05:45:38;101544.53;;;21.28;57.46
28797;BME280;24974;54.444;18.560;2023-06-24T05:48:08;101539.31;;;22.31;55.47
28797;BME280;24974;54.444;18.560;2023-06-24T05:50:39;101538.19;;;22.36;54.44
28797;BME280;24974;54.444;18.560;2023-06-24T05:53:10;101539.94;;;21.70;56.03
28797;BME280;24974;54.444;18.560;2023-06-24T05:55:40;101543.72;;;22.32;54.37
28797;BME280;24974;54.444;18.560;2023-06-24T05:58:11;101548.75;;;22.23;55.67
28797;BME280;24974;54.444;18.560;2023-06-24T06:00:42;101540.31;;;22.62;54.00
28797;BME280;24974;54.444;18.560;2023-06-24T06:03:12;101551.63;;;22.69;54.48
28797;BME280;24974;54.444;18.560;2023-06-24T06:05:43;101546.34;;;22.45;55.21
28797;BME280;24974;54.444;18.560;2023-06-24T06:08:14;101551.44;;;22.58;54.32
28797;BME280;24974;54.444;18.560;2023-06-24T06:10:44;101546.47;;;22.91;53.91
28797;BME280;24974;54.444;18.560;2023-06-24T06:13:15;101543.28;;;22.92;53.23
28797;BME280;24974;54.444;18.560;2023-06-24T06:15:46;101542.66;;;22.79;53.41
28797;BME280;24974;54.444;18.560;2023-06-24T06:18:16;101542.66;;;23.25;52.59
28797;BME280;24974;54.444;18.560;2023-06-24T06:20:47;101545.69;;;23.39;52.24
28797;BME280;24974;54.444;18.560;2023-06-24T06:23:18;101541.25;;;23.35;52.26
28797;BME280;24974;54.444;18.560;2023-06-24T06:25:48;101541.19;;;23.84;51.14
28797;BME280;24974;54.444;18.560;2023-06-24T06:28:19;101545.66;;;22.90;53.20
28797;BME280;24974;54.444;18.560;2023-06-24T06:30:50;101550.03;;;22.87;53.21
28797;BME280;24974;54.444;18.560;2023-06-24T06:33:21;101545.19;;;23.34;52.53
28797;BME280;24974;54.444;18.560;2023-06-24T06:35:51;101537.28;;;23.62;51.58
28797;BME280;24974;54.444;18.560;2023-06-24T06:38:22;101544.31;;;23.53;52.32
28797;BME280;24974;54.444;18.560;2023-06-24T06:40:52;101544.00;;;23.84;51.52
28797;BME280;24974;54.444;18.560;2023-06-24T06:43:23;101545.31;;;22.72;54.28
28797;BME280;24974;54.444;18.560;2023-06-24T06:45:54;101542.25;;;23.50;52.50
28797;BME280;24974;54.444;18.560;2023-06-24T06:48:24;101542.56;;;23.97;51.26
28797;BME280;24974;54.444;18.560;2023-06-24T06:50:55;101550.88;;;23.37;53.06
28797;BME280;24974;54.444;18.560;2023-06-24T06:53:26;101544.34;;;23.30;53.23
28797;BME280;24974;54.444;18.560;2023-06-24T06:55:56;101538.91;;;24.23;51.03
28797;BME280;24974;54.444;18.560;2023-06-24T06:58:28;101529.28;;;24.54;49.83
28797;BME280;24974;54.444;18.560;2023-06-24T07:00:59;101540.16;;;24.97;49.10
28797;BME280;24974;54.444;18.560;2023-06-24T07:03:32;101541.13;;;25.15;48.70
28797;BME280;24974;54.444;18.560;2023-06-24T07:06:02;101538.16;;;25.45;48.21
28797;BME280;24974;54.444;18.560;2023-06-24T07:08:33;101538.81;;;25.76;47.24
28797;BME280;24974;54.444;18.560;2023-06-24T07:11:04;101532.47;;;25.93;46.90
28797;BME280;24974;54.444;18.560;2023-06-24T07:13:34;101530.84;;;25.92;46.75
28797;BME280;24974;54.444;18.560;2023-06-24T07:16:05;101535.81;;;26.20;46.13
28797;BME280;24974;54.444;18.560;2023-06-24T07:18:36;101538.69;;;26.38;45.92
28797;BME280;24974;54.444;18.560;2023-06-24T07:21:06;101539.03;;;26.18;46.62
28797;BME280;24974;54.444;18.560;2023-06-24T07:23:37;101539.31;;;25.37;47.26
28797;BME280;24974;54.444;18.560;2023-06-24T07:26:08;101533.34;;;25.46;47.08
28797;BME280;24974;54.444;18.560;2023-06-24T07:28:38;101539.78;;;25.50;46.18
28797;BME280;24974;54.444;18.560;2023-06-24T07:31:09;101537.44;;;26.25;44.57
28797;BME280;24974;54.444;18.560;2023-06-24T07:33:40;101543.66;;;25.79;45.71
28797;BME280;24974;54.444;18.560;2023-06-24T07:36:10;101545.81;;;26.07;44.29
28797;BME280;24974;54.444;18.560;2023-06-24T07:38:41;101549.63;;;26.54;42.72
28797;BME280;24974;54.444;18.560;2023-06-24T07:41:11;101552.06;;;26.52;43.28
28797;BME280;24974;54.444;18.560;2023-06-24T07:43:42;101543.66;;;26.94;42.28
28797;BME280;24974;54.444;18.560;2023-06-24T07:46:13;101544.13;;;27.25;40.94
28797;BME280;24974;54.444;18.560;2023-06-24T07:48:43;101548.16;;;27.42;40.08
28797;BME280;24974;54.444;18.560;2023-06-24T07:51:14;101548.09;;;26.77;40.84
28797;BME280;24974;54.444;18.560;2023-06-24T07:53:45;101550.59;;;27.11;40.31
28797;BME280;24974;54.444;18.560;2023-06-24T07:56:15;101555.41;;;27.57;39.36
28797;BME280;24974;54.444;18.560;2023-06-24T07:58:46;101552.59;;;27.36;39.89
28797;BME280;24974;54.444;18.560;2023-06-24T08:01:17;101550.59;;;27.36;39.53
28797;BME280;24974;54.444;18.560;2023-06-24T08:03:47;101557.81;;;27.62;39.66
28797;BME280;24974;54.444;18.560;2023-06-24T08:06:18;101562.13;;;26.49;41.35
28797;BME280;24974;54.444;18.560;2023-06-24T08:08:49;101557.38;;;27.03;39.59
28797;BME280;24974;54.444;18.560;2023-06-24T08:11:19;101573.19;;;27.68;38.32
28797;BME280;24974;54.444;18.560;2023-06-24T08:13:51;101569.03;;;28.15;36.92
28797;BME280;24974;54.444;18.560;2023-06-24T08:16:22;101573.75;;;28.47;35.84
28797;BME280;24974;54.444;18.560;2023-06-24T08:18:53;101575.44;;;28.27;37.81
28797;BME280;24974;54.444;18.560;2023-06-24T08:21:23;101588.88;;;27.41;43.91
28797;BME280;24974;54.444;18.560;2023-06-24T08:23:54;101586.47;;;27.85;43.60
28797;BME280;24974;54.444;18.560;2023-06-24T08:26:24;101586.56;;;28.69;41.96
28797;BME280;24974;54.444;18.560;2023-06-24T08:28:55;101582.50;;;28.70;42.31
28797;BME280;24974;54.444;18.560;2023-06-24T08:31:26;101586.28;;;28.42;42.62
28797;BME280;24974;54.444;18.560;2023-06-24T08:33:58;101598.03;;;28.41;43.42
28797;BME280;24974;54.444;18.560;2023-06-24T08:36:29;101598.97;;;27.84;44.19
28797;BME280;24974;54.444;18.560;2023-06-24T08:39:00;101593.19;;;28.27;42.88
28797;BME280;24974;54.444;18.560;2023-06-24T08:41:30;101594.44;;;28.19;42.90
28797;BME280;24974;54.444;18.560;2023-06-24T08:44:01;101604.19;;;27.65;45.17
28797;BME280;24974;54.444;18.560;2023-06-24T08:46:32;101606.03;;;28.57;43.75
28797;BME280;24974;54.444;18.560;2023-06-24T08:49:40;101602.50;;;28.21;44.86
28797;BME280;24974;54.444;18.560;2023-06-24T08:52:04;101615.00;;;28.30;44.91
28797;BME280;24974;54.444;18.560;2023-06-24T08:54:38;101606.03;;;28.57;43.95
28797;BME280;24974;54.444;18.560;2023-06-24T08:57:10;101606.53;;;28.23;45.05
28797;BME280;24974;54.444;18.560;2023-06-24T08:59:44;101605.38;;;28.10;44.86
28797;BME280;24974;54.444;18.560;2023-06-24T09:02:16;101603.75;;;28.16;44.96
28797;BME280;24974;54.444;18.560;2023-06-24T09:04:46;101608.69;;;27.69;46.29
28797;BME280;24974;54.444;18.560;2023-06-24T09:07:27;101607.00;;;27.97;44.78
28797;BME280;24974;54.444;18.560;2023-06-24T09:10:00;101606.84;;;28.54;43.06
28797;BME280;24974;54.444;18.560;2023-06-24T09:12:32;101601.09;;;28.75;42.39
28797;BME280;24974;54.444;18.560;2023-06-24T09:15:03;101599.59;;;28.46;43.06
28797;BME280;24974;54.444;18.560;2023-06-24T09:17:41;101601.75;;;29.04;42.18
28797;BME280;24974;54.444;18.560;2023-06-24T09:20:13;101617.56;;;28.94;42.11
28797;BME280;24974;54.444;18.560;2023-06-24T09:22:44;101620.13;;;28.67;42.34
28797;BME280;24974;54.444;18.560;2023-06-24T09:25:18;101610.44;;;28.65;42.91
28797;BME280;24974;54.444;18.560;2023-06-24T09:27:49;101612.31;;;28.86;42.42
28797;BME280;24974;54.444;18.560;2023-06-24T09:30:23;101607.50;;;28.79;41.78
28797;BME280;24974;54.444;18.560;2023-06-24T09:32:53;101605.09;;;28.81;42.02
28797;BME280;24974;54.444;18.560;2023-06-24T09:35:25;101618.75;;;29.01;42.05
28797;BME280;24974;54.444;18.560;2023-06-24T09:37:56;101612.31;;;28.89;42.06
28797;BME280;24974;54.444;18.560;2023-06-24T09:40:27;101618.38;;;29.50;40.48
28797;BME280;24974;54.444;18.560;2023-06-24T09:42:58;101620.53;;;29.36;41.65
28797;BME280;24974;54.444;18.560;2023-06-24T09:45:31;101612.53;;;30.17;39.49
28797;BME280;24974;54.444;18.560;2023-06-24T09:48:01;101622.81;;;29.96;39.55
28797;BME280;24974;54.444;18.560;2023-06-24T09:50:33;101621.94;;;29.03;40.28
28797;BME280;24974;54.444;18.560;2023-06-24T09:53:04;101617.06;;;29.10;40.16
28797;BME280;24974;54.444;18.560;2023-06-24T09:55:35;101619.53;;;29.05;41.88
28797;BME280;24974;54.444;18.560;2023-06-24T09:58:06;101615.38;;;28.43;42.95
28797;BME280;24974;54.444;18.560;2023-06-24T10:00:37;101620.41;;;28.87;41.55
28797;BME280;24974;54.444;18.560;2023-06-24T10:03:08;101614.72;;;28.87;42.00
28797;BME280;24974;54.444;18.560;2023-06-24T10:05:38;101619.91;;;29.07;42.96
28797;BME280;24974;54.444;18.560;2023-06-24T10:08:12;101615.19;;;29.45;41.51
28797;BME280;24974;54.444;18.560;2023-06-24T10:10:44;101620.00;;;28.89;42.10
28797;BME280;24974;54.444;18.560;2023-06-24T10:13:14;101617.09;;;29.59;40.88
28797;BME280;24974;54.444;18.560;2023-06-24T10:15:45;101616.16;;;30.17;38.75
28797;BME280;24974;54.444;18.560;2023-06-24T10:21:01;101618.47;;;30.90;37.54
28797;BME280;24974;54.444;18.560;2023-06-24T10:23:33;101614.41;;;30.27;38.75
28797;BME280;24974;54.444;18.560;2023-06-24T10:26:09;101608.97;;;30.40;39.71
28797;BME280;24974;54.444;18.560;2023-06-24T10:36:53;101618.91;;;34.19;nan
28797;BME280;24974;54.444;18.560;2023-06-24T10:42:39;101623.41;;;31.13;nan
28797;BME280;24974;54.444;18.560;2023-06-24T10:47:45;101616.38;;;30.68;nan
28797;BME280;24974;54.444;18.560;2023-06-24T10:50:19;101615.13;;;31.26;nan
28797;BME280;24974;54.444;18.560;2023-06-24T10:52:52;101620.56;;;31.64;nan
28797;BME280;24974;54.444;18.560;2023-06-24T10:55:26;101628.44;;;31.80;nan
28797;BME280;24974;54.444;18.560;2023-06-24T10:58:10;101625.00;;;31.41;nan
28797;BME280;24974;54.444;18.560;2023-06-24T11:00:43;101633.38;;;30.98;nan
28797;BME280;24974;54.444;18.560;2023-06-24T11:03:16;101625.72;;;31.96;nan
28797;BME280;24974;54.444;18.560;2023-06-24T11:05:48;101636.47;;;32.48;nan
28797;BME280;24974;54.444;18.560;2023-06-24T11:08:20;101638.06;;;32.89;nan
28797;BME280;24974;54.444;18.560;2023-06-24T11:10:51;101635.25;;;33.05;nan
28797;BME280;24974;54.444;18.560;2023-06-24T11:13:21;101622.19;;;32.32;nan
28797;BME280;24974;54.444;18.560;2023-06-24T11:15:59;101630.66;;;32.35;nan
28797;BME280;24974;54.444;18.560;2023-06-24T11:18:37;101634.84;;;32.27;nan
28797;BME280;24974;54.444;18.560;2023-06-24T11:21:09;101640.94;;;32.06;nan
28797;BME280;24974;54.444;18.560;2023-06-24T11:23:39;101647.56;;;31.99;nan
28797;BME280;24974;54.444;18.560;2023-06-24T11:26:10;101636.69;;;31.47;nan
28797;BME280;24974;54.444;18.560;2023-06-24T11:28:41;101639.22;;;31.65;nan
28797;BME280;24974;54.444;18.560;2023-06-24T11:31:12;101647.38;;;31.39;nan
28797;BME280;24974;54.444;18.560;2023-06-24T11:33:48;101638.56;;;31.03;nan
28797;BME280;24974;54.444;18.560;2023-06-24T11:36:20;101635.53;;;30.56;nan
28797;BME280;24974;54.444;18.560;2023-06-24T11:38:51;101637.09;;;30.27;nan
28797;BME280;24974;54.444;18.560;2023-06-24T11:41:22;101639.81;;;30.00;nan
28797;BME280;24974;54.444;18.560;2023-06-24T11:43:53;101638.34;;;31.17;nan
28797;BME280;24974;54.444;18.560;2023-06-24T11:46:25;101645.00;;;31.34;nan
28797;BME280;24974;54.444;18.560;2023-06-24T11:49:10;101641.75;;;32.06;nan
28797;BME280;24974;54.444;18.560;2023-06-24T11:51:48;101660.59;;;31.73;nan
28797;BME280;24974;54.444;18.560;2023-06-24T11:54:20;101658.28;;;31.91;nan
28797;BME280;24974;54.444;18.560;2023-06-24T11:56:51;101654.44;;;31.28;nan
28797;BME280;24974;54.444;18.560;2023-06-24T11:59:23;101651.53;;;29.98;nan
28797;BME280;24974;54.444;18.560;2023-06-24T12:01:58;101640.81;;;30.54;nan
28797;BME280;24974;54.444;18.560;2023-06-24T12:04:33;101638.63;;;31.27;nan
28797;BME280;24974;54.444;18.560;2023-06-24T12:07:05;101650.69;;;29.60;nan
28797;BME280;24974;54.444;18.560;2023-06-24T12:09:37;101642.31;;;30.62;nan
28797;BME280;24974;54.444;18.560;2023-06-24T12:12:09;101650.31;;;30.75;nan
28797;BME280;24974;54.444;18.560;2023-06-24T12:14:40;101662.28;;;30.55;nan
28797;BME280;24974;54.444;18.560;2023-06-24T12:17:11;101655.53;;;30.04;nan
28797;BME280;24974;54.444;18.560;2023-06-24T12:19:42;101652.03;;;30.65;nan
28797;BME280;24974;54.444;18.560;2023-06-24T12:22:13;101651.50;;;30.77;nan
28797;BME280;24974;54.444;18.560;2023-06-24T12:24:43;101660.09;;;31.01;nan
28797;BME280;24974;54.444;18.560;2023-06-24T12:27:14;101655.19;;;29.54;nan
28797;BME280;24974;54.444;18.560;2023-06-24T12:29:45;101652.75;;;28.86;nan
28797;BME280;24974;54.444;18.560;2023-06-24T12:32:15;101664.84;;;28.94;nan
28797;BME280;24974;54.444;18.560;2023-06-24T12:34:46;101657.13;;;29.68;nan
28797;BME280;24974;54.444;18.560;2023-06-24T12:37:17;101662.19;;;30.62;nan
28797;BME280;24974;54.444;18.560;2023-06-24T12:39:48;101668.06;;;30.82;nan
28797;BME280;24974;54.444;18.560;2023-06-24T12:42:21;101669.94;;;30.24;nan
28797;BME280;24974;54.444;18.560;2023-06-24T12:44:52;101663.41;;;28.50;nan
28797;BME280;24974;54.444;18.560;2023-06-24T12:47:23;101665.66;;;28.98;nan
28797;BME280;24974;54.444;18.560;2023-06-24T12:49:54;101669.03;;;28.64;nan
28797;BME280;24974;54.444;18.560;2023-06-24T12:52:25;101657.63;;;28.82;nan
28797;BME280;24974;54.444;18.560;2023-06-24T12:54:55;101655.66;;;29.42;nan
28797;BME280;24974;54.444;18.560;2023-06-24T12:57:26;101656.00;;;29.55;nan
